sensor_id;sensor_type;location;lat;lon;timestamp;pressure;altitude;pressure_sealevel;temperature;humidity
70256;BME280;57669;52.624;-1.688;2022-08-06T00:01:25;102253.33;;;13.84;40.41
70256;BME280;57669;52.624;-1.688;2022-08-06T00:03:50;102251.48;;;13.47;40.32
70256;BME280;57669;52.624;-1.688;2022-08-06T00:06:16;102249.62;;;13.98;39.36
70256;BME280;57669;52.624;-1.688;2022-08-06T00:08:42;102248.67;;;13.84;39.48
70256;BME280;57669;52.624;-1.688;2022-08-06T00:11:07;102245.78;;;13.98;39.38
70256;BME280;57669;52.624;-1.688;2022-08-06T00:15:58;102245.85;;;14.06;39.31
70256;BME280;57669;52.624;-1.688;2022-08-06T00:18:23;102246.42;;;13.96;39.37
70256;BME280;57669;52.624;-1.688;2022-08-06T00:20:49;102245.49;;;14.05;39.31
70256;BME280;57669;52.624;-1.688;2022-08-06T00:23:14;102240.64;;;14.36;39.16
70256;BME280;57669;52.624;-1.688;2022-08-06T00:25:40;102238.57;;;13.51;40.06
70256;BME280;57669;52.624;-1.688;2022-08-06T00:28:05;102246.58;;;14.14;39.90
70256;BME280;57669;52.624;-1.688;2022-08-06T00:30:31;102241.79;;;14.04;39.55
70256;BME280;57669;52.624;-1.688;2022-08-06T00:32:56;102243.89;;;13.96;39.60
70256;BME280;57669;52.624;-1.688;2022-08-06T00:35:22;102246.47;;;13.91;39.44
70256;BME280;57669;52.624;-1.688;2022-08-06T00:37:47;102248.49;;;13.37;40.26
70256;BME280;57669;52.624;-1.688;2022-08-06T00:40:14;102241.57;;;13.26;41.12
70256;BME280;57669;52.624;-1.688;2022-08-06T00:42:38;102243.46;;;13.45;40.20
70256;BME280;57669;52.624;-1.688;2022-08-06T00:45:04;102239.61;;;13.50;40.84
70256;BME280;57669;52.624;-1.688;2022-08-06T00:47:29;102241.88;;;13.24;40.56
70256;BME280;57669;52.624;-1.688;2022-08-06T00:49:54;102239.79;;;13.38;40.48
70256;BME280;57669;52.624;-1.688;2022-08-06T00:52:20;102243.54;;;12.90;41.31
70256;BME280;57669;52.624;-1.688;2022-08-06T00:54:45;102243.61;;;13.17;41.01
70256;BME280;57669;52.624;-1.688;2022-08-06T00:57:11;102239.58;;;13.78;40.26
70256;BME280;57669;52.624;-1.688;2022-08-06T00:59:37;102236.32;;;13.94;40.49
70256;BME280;57669;52.624;-1.688;2022-08-06T01:02:02;102239.45;;;14.09;40.18
70256;BME280;57669;52.624;-1.688;2022-08-06T01:04:28;102242.14;;;13.35;41.33
70256;BME280;57669;52.624;-1.688;2022-08-06T01:06:54;102247.73;;;13.96;40.53
70256;BME280;57669;52.624;-1.688;2022-08-06T01:09:19;102253.45;;;13.65;41.22
70256;BME280;57669;52.624;-1.688;2022-08-06T01:11:44;102251.26;;;13.44;41.20
70256;BME280;57669;52.624;-1.688;2022-08-06T01:14:09;102251.84;;;13.05;41.94
70256;BME280;57669;52.624;-1.688;2022-08-06T01:16:38;102257.83;;;12.55;42.52
70256;BME280;57669;52.624;-1.688;2022-08-06T01:19:06;102252.06;;;13.02;41.79
70256;BME280;57669;52.624;-1.688;2022-08-06T01:21:40;102253.37;;;13.02;41.79
70256;BME280;57669;52.624;-1.688;2022-08-06T01:24:05;102249.54;;;13.50;41.43
70256;BME280;57669;52.624;-1.688;2022-08-06T01:26:23;102250.88;;;13.48;41.11
70256;BME280;57669;52.624;-1.688;2022-08-06T01:28:45;102254.46;;;13.58;40.87
70256;BME280;57669;52.624;-1.688;2022-08-06T01:31:09;102252.50;;;13.27;41.24
70256;BME280;57669;52.624;-1.688;2022-08-06T01:33:35;102255.79;;;13.35;41.14
70256;BME280;57669;52.624;-1.688;2022-08-06T01:36:01;102258.62;;;13.38;41.00
70256;BME280;57669;52.624;-1.688;2022-08-06T01:38:26;102263.11;;;13.03;41.67
70256;BME280;57669;52.624;-1.688;2022-08-06T01:40:49;102267.04;;;12.94;41.89
70256;BME280;57669;52.624;-1.688;2022-08-06T01:43:15;102263.45;;;12.52;42.64
70256;BME280;57669;52.624;-1.688;2022-08-06T01:45:39;102266.72;;;12.72;42.43
70256;BME280;57669;52.624;-1.688;2022-08-06T01:48:09;102265.71;;;12.46;42.50
70256;BME280;57669;52.624;-1.688;2022-08-06T01:50:33;102265.45;;;12.62;42.24
70256;BME280;57669;52.624;-1.688;2022-08-06T01:52:57;102264.44;;;13.25;41.16
70256;BME280;57669;52.624;-1.688;2022-08-06T01:55:21;102265.87;;;13.39;41.06
70256;BME280;57669;52.624;-1.688;2022-08-06T01:57:50;102261.60;;;13.03;41.76
70256;BME280;57669;52.624;-1.688;2022-08-06T02:00:13;102267.35;;;12.73;41.87
70256;BME280;57669;52.624;-1.688;2022-08-06T02:02:39;102266.72;;;12.93;41.75
70256;BME280;57669;52.624;-1.688;2022-08-06T02:05:04;102264.84;;;12.73;42.24
70256;BME280;57669;52.624;-1.688;2022-08-06T02:07:32;102264.37;;;12.77;42.20
70256;BME280;57669;52.624;-1.688;2022-08-06T02:09:55;102259.20;;;12.50;43.18
70256;BME280;57669;52.624;-1.688;2022-08-06T02:12:23;102259.11;;;12.75;42.27
70256;BME280;57669;52.624;-1.688;2022-08-06T02:14:49;102253.69;;;13.15;41.67
70256;BME280;57669;52.624;-1.688;2022-08-06T02:17:11;102260.75;;;12.62;42.47
70256;BME280;57669;52.624;-1.688;2022-08-06T02:19:36;102265.57;;;12.36;43.28
70256;BME280;57669;52.624;-1.688;2022-08-06T02:22:03;102261.28;;;12.64;43.04
70256;BME280;57669;52.624;-1.688;2022-08-06T02:24:29;102261.78;;;12.91;42.12
70256;BME280;57669;52.624;-1.688;2022-08-06T02:26:54;102261.62;;;13.01;42.11
70256;BME280;57669;52.624;-1.688;2022-08-06T02:29:19;102264.71;;;12.98;42.13
70256;BME280;57669;52.624;-1.688;2022-08-06T02:31:44;102261.71;;;13.04;42.25
70256;BME280;57669;52.624;-1.688;2022-08-06T02:34:10;102264.05;;;12.57;42.76
70256;BME280;57669;52.624;-1.688;2022-08-06T02:36:46;102259.55;;;12.57;42.95
70256;BME280;57669;52.624;-1.688;2022-08-06T02:39:04;102264.98;;;12.48;43.31
70256;BME280;57669;52.624;-1.688;2022-08-06T02:41:30;102265.53;;;12.72;43.15
70256;BME280;57669;52.624;-1.688;2022-08-06T02:43:55;102271.42;;;12.59;43.37
70256;BME280;57669;52.624;-1.688;2022-08-06T02:46:22;102275.10;;;12.71;42.91
70256;BME280;57669;52.624;-1.688;2022-08-06T02:48:49;102276.43;;;12.13;43.85
70256;BME280;57669;52.624;-1.688;2022-08-06T02:51:13;102276.11;;;12.18;43.94
70256;BME280;57669;52.624;-1.688;2022-08-06T02:53:39;102274.52;;;12.15;44.17
70256;BME280;57669;52.624;-1.688;2022-08-06T02:56:05;102277.61;;;12.15;44.09
70256;BME280;57669;52.624;-1.688;2022-08-06T02:58:31;102274.81;;;11.95;44.28
70256;BME280;57669;52.624;-1.688;2022-08-06T03:00:52;102280.07;;;12.52;43.29
70256;BME280;57669;52.624;-1.688;2022-08-06T03:03:17;102282.37;;;12.45;43.13
70256;BME280;57669;52.624;-1.688;2022-08-06T03:05:44;102283.68;;;11.82;43.73
70256;BME280;57669;52.624;-1.688;2022-08-06T03:08:09;102276.06;;;11.49;44.68
70256;BME280;57669;52.624;-1.688;2022-08-06T03:10:33;102277.35;;;11.62;44.90
70256;BME280;57669;52.624;-1.688;2022-08-06T03:12:58;102279.35;;;11.76;44.70
70256;BME280;57669;52.624;-1.688;2022-08-06T03:15:24;102283.43;;;12.08;44.07
70256;BME280;57669;52.624;-1.688;2022-08-06T03:17:49;102274.97;;;11.63;44.77
70256;BME280;57669;52.624;-1.688;2022-08-06T03:20:18;102275.08;;;11.48;45.00
70256;BME280;57669;52.624;-1.688;2022-08-06T03:22:40;102276.30;;;11.92;44.16
70256;BME280;57669;52.624;-1.688;2022-08-06T03:25:07;102270.94;;;11.77;44.49
70256;BME280;57669;52.624;-1.688;2022-08-06T03:27:31;102275.34;;;12.09;43.63
70256;BME280;57669;52.624;-1.688;2022-08-06T03:29:57;102273.28;;;11.92;44.96
70256;BME280;57669;52.624;-1.688;2022-08-06T03:32:22;102274.52;;;11.57;44.60
70256;BME280;57669;52.624;-1.688;2022-08-06T03:34:48;102277.03;;;11.95;44.27
70256;BME280;57669;52.624;-1.688;2022-08-06T03:37:12;102279.42;;;12.40;44.00
70256;BME280;57669;52.624;-1.688;2022-08-06T03:39:39;102278.44;;;11.90;44.91
70256;BME280;57669;52.624;-1.688;2022-08-06T03:42:04;102278.10;;;11.20;46.00
70256;BME280;57669;52.624;-1.688;2022-08-06T03:44:29;102281.68;;;11.36;45.13
70256;BME280;57669;52.624;-1.688;2022-08-06T03:46:57;102282.92;;;11.60;44.35
70256;BME280;57669;52.624;-1.688;2022-08-06T03:49:22;102286.27;;;11.92;44.04
70256;BME280;57669;52.624;-1.688;2022-08-06T03:51:46;102286.99;;;11.63;44.51
70256;BME280;57669;52.624;-1.688;2022-08-06T03:54:11;102283.26;;;11.60;44.11
70256;BME280;57669;52.624;-1.688;2022-08-06T03:56:37;102283.19;;;11.42;44.34
70256;BME280;57669;52.624;-1.688;2022-08-06T03:59:02;102286.43;;;11.81;44.14
70256;BME280;57669;52.624;-1.688;2022-08-06T04:01:34;102290.77;;;11.83;44.40
70256;BME280;57669;52.624;-1.688;2022-08-06T04:03:52;102292.46;;;11.68;44.89
70256;BME280;57669;52.624;-1.688;2022-08-06T04:06:19;102295.66;;;11.82;45.70
70256;BME280;57669;52.624;-1.688;2022-08-06T04:08:44;102292.70;;;10.64;47.13
70256;BME280;57669;52.624;-1.688;2022-08-06T04:11:08;102290.05;;;10.45;47.61
70256;BME280;57669;52.624;-1.688;2022-08-06T04:13:35;102288.89;;;10.37;47.59
70256;BME280;57669;52.624;-1.688;2022-08-06T04:15:59;102292.63;;;10.82;46.86
70256;BME280;57669;52.624;-1.688;2022-08-06T04:18:27;102294.87;;;11.05;45.77
70256;BME280;57669;52.624;-1.688;2022-08-06T04:20:52;102294.75;;;11.36;45.28
70256;BME280;57669;52.624;-1.688;2022-08-06T04:23:15;102303.95;;;11.29;45.20
70256;BME280;57669;52.624;-1.688;2022-08-06T04:25:44;102307.32;;;11.28;45.30
70256;BME280;57669;52.624;-1.688;2022-08-06T04:28:08;102307.59;;;11.09;45.31
70256;BME280;57669;52.624;-1.688;2022-08-06T04:33:13;102309.56;;;11.59;44.71
70256;BME280;57669;52.624;-1.688;2022-08-06T04:35:24;102309.50;;;11.53;44.78
70256;BME280;57669;52.624;-1.688;2022-08-06T04:37:49;102319.74;;;11.35;45.09
70256;BME280;57669;52.624;-1.688;2022-08-06T04:40:14;102323.72;;;10.89;46.03
70256;BME280;57669;52.624;-1.688;2022-08-06T04:42:39;102327.79;;;11.22;45.78
70256;BME280;57669;52.624;-1.688;2022-08-06T04:45:07;102325.77;;;11.36;45.35
70256;BME280;57669;52.624;-1.688;2022-08-06T04:47:30;102329.89;;;11.16;45.36
70256;BME280;57669;52.624;-1.688;2022-08-06T04:49:55;102326.79;;;11.49;45.34
70256;BME280;57669;52.624;-1.688;2022-08-06T04:52:21;102326.38;;;11.50;45.43
70256;BME280;57669;52.624;-1.688;2022-08-06T04:54:46;102324.46;;;11.65;45.28
70256;BME280;57669;52.624;-1.688;2022-08-06T04:57:11;102329.35;;;11.44;45.85
70256;BME280;57669;52.624;-1.688;2022-08-06T04:59:37;102330.62;;;11.31;46.04
70256;BME280;57669;52.624;-1.688;2022-08-06T05:02:03;102327.59;;;10.84;46.55
70256;BME280;57669;52.624;-1.688;2022-08-06T05:04:29;102333.12;;;10.83;46.55
70256;BME280;57669;52.624;-1.688;2022-08-06T05:07:00;102336.28;;;11.32;46.00
70256;BME280;57669;52.624;-1.688;2022-08-06T05:09:24;102332.43;;;11.66;45.55
70256;BME280;57669;52.624;-1.688;2022-08-06T05:11:48;102336.42;;;11.64;45.68
70256;BME280;57669;52.624;-1.688;2022-08-06T05:14:15;102340.20;;;11.52;45.94
70256;BME280;57669;52.624;-1.688;2022-08-06T05:16:39;102343.02;;;11.06;46.82
70256;BME280;57669;52.624;-1.688;2022-08-06T05:19:05;102343.26;;;11.23;46.59
70256;BME280;57669;52.624;-1.688;2022-08-06T05:21:31;102340.48;;;11.08;46.17
70256;BME280;57669;52.624;-1.688;2022-08-06T05:23:54;102340.64;;;11.17;46.84
70256;BME280;57669;52.624;-1.688;2022-08-06T05:26:19;102336.19;;;11.77;45.99
70256;BME280;57669;52.624;-1.688;2022-08-06T05:28:44;102334.76;;;11.61;46.18
70256;BME280;57669;52.624;-1.688;2022-08-06T05:31:09;102330.40;;;11.41;45.69
70256;BME280;57669;52.624;-1.688;2022-08-06T05:33:37;102325.98;;;11.75;45.03
70256;BME280;57669;52.624;-1.688;2022-08-06T05:36:02;102327.06;;;11.93;45.15
70256;BME280;57669;52.624;-1.688;2022-08-06T05:38:27;102327.57;;;11.18;46.00
70256;BME280;57669;52.624;-1.688;2022-08-06T05:40:52;102333.74;;;11.80;45.25
70256;BME280;57669;52.624;-1.688;2022-08-06T05:43:17;102336.31;;;11.66;45.55
70256;BME280;57669;52.624;-1.688;2022-08-06T05:45:43;102338.87;;;11.97;45.23
70256;BME280;57669;52.624;-1.688;2022-08-06T05:48:11;102343.75;;;12.25;44.29
70256;BME280;57669;52.624;-1.688;2022-08-06T05:50:39;102342.81;;;11.94;45.01
70256;BME280;57669;52.624;-1.688;2022-08-06T05:53:02;102347.49;;;11.66;45.53
70256;BME280;57669;52.624;-1.688;2022-08-06T05:55:31;102349.14;;;12.17;45.37
70256;BME280;57669;52.624;-1.688;2022-08-06T05:57:54;102357.72;;;12.12;45.41
70256;BME280;57669;52.624;-1.688;2022-08-06T06:00:19;102357.62;;;12.01;45.18
70256;BME280;57669;52.624;-1.688;2022-08-06T06:02:44;102359.83;;;12.46;44.62
70256;BME280;57669;52.624;-1.688;2022-08-06T06:05:07;102359.70;;;12.44;44.20
70256;BME280;57669;52.624;-1.688;2022-08-06T06:07:32;102361.12;;;12.40;43.98
70256;BME280;57669;52.624;-1.688;2022-08-06T06:09:58;102362.50;;;12.15;44.39
70256;BME280;57669;52.624;-1.688;2022-08-06T06:12:22;102360.37;;;12.45;43.79
70256;BME280;57669;52.624;-1.688;2022-08-06T06:14:49;102360.36;;;12.10;44.49
70256;BME280;57669;52.624;-1.688;2022-08-06T06:17:25;102363.58;;;12.48;43.40
70256;BME280;57669;52.624;-1.688;2022-08-06T06:19:45;102360.97;;;12.80;43.40
70256;BME280;57669;52.624;-1.688;2022-08-06T06:22:12;102358.49;;;12.88;43.28
70256;BME280;57669;52.624;-1.688;2022-08-06T06:24:35;102357.18;;;12.74;43.32
70256;BME280;57669;52.624;-1.688;2022-08-06T06:27:00;102360.16;;;13.04;43.68
70256;BME280;57669;52.624;-1.688;2022-08-06T06:29:32;102365.28;;;13.03;43.04
70256;BME280;57669;52.624;-1.688;2022-08-06T06:31:55;102366.28;;;13.00;43.91
70256;BME280;57669;52.624;-1.688;2022-08-06T06:34:17;102365.55;;;12.87;44.19
70256;BME280;57669;52.624;-1.688;2022-08-06T06:36:43;102368.30;;;12.62;44.38
70256;BME280;57669;52.624;-1.688;2022-08-06T06:39:06;102368.38;;;13.03;43.39
70256;BME280;57669;52.624;-1.688;2022-08-06T06:41:33;102370.24;;;12.82;45.06
70256;BME280;57669;52.624;-1.688;2022-08-06T06:44:01;102372.89;;;12.85;44.86
70256;BME280;57669;52.624;-1.688;2022-08-06T06:46:25;102373.42;;;13.08;44.73
70256;BME280;57669;52.624;-1.688;2022-08-06T06:48:48;102379.46;;;12.99;44.99
70256;BME280;57669;52.624;-1.688;2022-08-06T06:51:19;102376.74;;;12.90;44.99
70256;BME280;57669;52.624;-1.688;2022-08-06T06:53:41;102380.88;;;13.23;44.39
70256;BME280;57669;52.624;-1.688;2022-08-06T06:56:03;102380.21;;;13.49;44.17
70256;BME280;57669;52.624;-1.688;2022-08-06T06:58:34;102378.45;;;13.26;44.58
70256;BME280;57669;52.624;-1.688;2022-08-06T07:00:54;102381.57;;;13.52;44.14
70256;BME280;57669;52.624;-1.688;2022-08-06T07:03:25;102377.35;;;13.62;44.25
70256;BME280;57669;52.624;-1.688;2022-08-06T07:05:47;102385.05;;;13.57;44.55
70256;BME280;57669;52.624;-1.688;2022-08-06T07:08:11;102387.28;;;13.66;44.45
70256;BME280;57669;52.624;-1.688;2022-08-06T07:10:35;102383.33;;;14.26;43.63
70256;BME280;57669;52.624;-1.688;2022-08-06T07:13:02;102390.86;;;13.02;44.94
70256;BME280;57669;52.624;-1.688;2022-08-06T07:15:28;102391.04;;;13.61;44.88
70256;BME280;57669;52.624;-1.688;2022-08-06T07:17:53;102395.53;;;13.58;45.16
70256;BME280;57669;52.624;-1.688;2022-08-06T07:20:20;102386.97;;;13.97;44.76
70256;BME280;57669;52.624;-1.688;2022-08-06T07:22:44;102393.53;;;13.79;45.40
70256;BME280;57669;52.624;-1.688;2022-08-06T07:25:11;102399.68;;;13.85;45.27
70256;BME280;57669;52.624;-1.688;2022-08-06T07:27:38;102402.16;;;13.47;46.03
70256;BME280;57669;52.624;-1.688;2022-08-06T07:30:01;102400.02;;;12.91;47.88
70256;BME280;57669;52.624;-1.688;2022-08-06T07:32:27;102401.60;;;13.71;46.46
70256;BME280;57669;52.624;-1.688;2022-08-06T07:34:52;102403.96;;;13.62;46.60
70256;BME280;57669;52.624;-1.688;2022-08-06T07:37:18;102404.06;;;13.68;47.20
70256;BME280;57669;52.624;-1.688;2022-08-06T07:39:43;102404.35;;;13.99;45.92
70256;BME280;57669;52.624;-1.688;2022-08-06T07:42:12;102405.23;;;13.87;46.09
70256;BME280;57669;52.624;-1.688;2022-08-06T07:44:36;102405.31;;;13.02;46.76
70256;BME280;57669;52.624;-1.688;2022-08-06T07:47:01;102402.18;;;13.77;45.66
70256;BME280;57669;52.624;-1.688;2022-08-06T07:49:32;102403.97;;;14.02;45.09
70256;BME280;57669;52.624;-1.688;2022-08-06T07:51:52;102406.99;;;14.06;44.73
70256;BME280;57669;52.624;-1.688;2022-08-06T07:54:18;102411.65;;;14.42;43.91
70256;BME280;57669;52.624;-1.688;2022-08-06T07:56:43;102412.97;;;14.69;43.41
70256;BME280;57669;52.624;-1.688;2022-08-06T07:59:08;102409.42;;;14.79;43.34
70256;BME280;57669;52.624;-1.688;2022-08-06T08:01:33;102406.69;;;15.01;43.12
70256;BME280;57669;52.624;-1.688;2022-08-06T08:03:59;102405.96;;;14.86;43.51
70256;BME280;57669;52.624;-1.688;2022-08-06T08:06:25;102410.16;;;15.00;43.01
70256;BME280;57669;52.624;-1.688;2022-08-06T08:08:54;102409.82;;;15.60;41.40
70256;BME280;57669;52.624;-1.688;2022-08-06T08:11:16;102412.34;;;15.69;41.27
70256;BME280;57669;52.624;-1.688;2022-08-06T08:13:43;102415.93;;;15.16;41.91
70256;BME280;57669;52.624;-1.688;2022-08-06T08:16:09;102412.59;;;15.92;41.15
70256;BME280;57669;52.624;-1.688;2022-08-06T08:18:32;102414.53;;;15.38;40.97
70256;BME280;57669;52.624;-1.688;2022-08-06T08:20:58;102412.15;;;15.28;41.41
70256;BME280;57669;52.624;-1.688;2022-08-06T08:23:24;102414.43;;;14.55;41.92
70256;BME280;57669;52.624;-1.688;2022-08-06T08:25:49;102416.27;;;15.69;40.54
70256;BME280;57669;52.624;-1.688;2022-08-06T08:28:15;102409.69;;;15.46;40.08
70256;BME280;57669;52.624;-1.688;2022-08-06T08:30:41;102409.72;;;14.37;41.79
70256;BME280;57669;52.624;-1.688;2022-08-06T08:33:06;102411.03;;;15.07;40.57
70256;BME280;57669;52.624;-1.688;2022-08-06T08:35:32;102410.46;;;15.07;40.10
70256;BME280;57669;52.624;-1.688;2022-08-06T08:37:57;102412.87;;;15.53;39.27
70256;BME280;57669;52.624;-1.688;2022-08-06T08:40:25;102410.33;;;14.93;40.81
70256;BME280;57669;52.624;-1.688;2022-08-06T08:42:50;102412.39;;;15.67;39.57
70256;BME280;57669;52.624;-1.688;2022-08-06T08:45:16;102411.22;;;14.86;39.43
70256;BME280;57669;52.624;-1.688;2022-08-06T08:47:44;102415.34;;;15.46;38.91
70256;BME280;57669;52.624;-1.688;2022-08-06T08:50:06;102413.74;;;15.54;38.11
70256;BME280;57669;52.624;-1.688;2022-08-06T08:52:33;102411.12;;;15.74;37.34
70256;BME280;57669;52.624;-1.688;2022-08-06T08:55:01;102409.43;;;15.87;37.27
70256;BME280;57669;52.624;-1.688;2022-08-06T08:57:33;102403.99;;;15.87;36.82
70256;BME280;57669;52.624;-1.688;2022-08-06T09:02:15;102404.05;;;16.56;35.26
70256;BME280;57669;52.624;-1.688;2022-08-06T09:04:41;102404.73;;;16.40;35.13
70256;BME280;57669;52.624;-1.688;2022-08-06T09:07:08;102402.54;;;16.49;33.88
70256;BME280;57669;52.624;-1.688;2022-08-06T09:09:32;102408.09;;;16.65;35.28
70256;BME280;57669;52.624;-1.688;2022-08-06T09:11:58;102405.69;;;16.54;35.28
70256;BME280;57669;52.624;-1.688;2022-08-06T09:14:23;102401.53;;;16.73;36.19
70256;BME280;57669;52.624;-1.688;2022-08-06T09:16:49;102401.73;;;16.60;35.99
70256;BME280;57669;52.624;-1.688;2022-08-06T09:19:15;102395.82;;;17.26;35.47
70256;BME280;57669;52.624;-1.688;2022-08-06T09:21:40;102402.13;;;17.27;34.81
70256;BME280;57669;52.624;-1.688;2022-08-06T09:24:06;102399.42;;;17.43;34.69
70256;BME280;57669;52.624;-1.688;2022-08-06T09:26:31;102402.55;;;17.43;34.58
70256;BME280;57669;52.624;-1.688;2022-08-06T09:28:57;102399.94;;;17.74;34.57
70256;BME280;57669;52.624;-1.688;2022-08-06T09:31:23;102397.49;;;17.61;34.40
70256;BME280;57669;52.624;-1.688;2022-08-06T09:33:54;102400.28;;;17.92;34.54
70256;BME280;57669;52.624;-1.688;2022-08-06T09:36:14;102404.15;;;18.15;33.55
70256;BME280;57669;52.624;-1.688;2022-08-06T09:38:45;102403.74;;;18.35;33.61
70256;BME280;57669;52.624;-1.688;2022-08-06T09:41:07;102409.60;;;18.43;33.03
70256;BME280;57669;52.624;-1.688;2022-08-06T09:43:31;102413.28;;;17.80;33.36
70256;BME280;57669;52.624;-1.688;2022-08-06T09:45:57;102409.85;;;17.31;33.67
70256;BME280;57669;52.624;-1.688;2022-08-06T09:48:22;102414.71;;;17.50;33.20
70256;BME280;57669;52.624;-1.688;2022-08-06T09:50:48;102409.85;;;16.94;34.97
70256;BME280;57669;52.624;-1.688;2022-08-06T09:53:14;102406.26;;;16.86;35.09
70256;BME280;57669;52.624;-1.688;2022-08-06T09:55:39;102407.97;;;17.21;34.18
70256;BME280;57669;52.624;-1.688;2022-08-06T09:58:05;102403.33;;;17.05;34.05
70256;BME280;57669;52.624;-1.688;2022-08-06T10:00:32;102404.56;;;17.83;32.46
70256;BME280;57669;52.624;-1.688;2022-08-06T10:02:56;102406.26;;;18.38;32.10
70256;BME280;57669;52.624;-1.688;2022-08-06T10:05:23;102404.35;;;18.33;31.67
70256;BME280;57669;52.624;-1.688;2022-08-06T10:12:38;102398.53;;;17.73;32.64
70256;BME280;57669;52.624;-1.688;2022-08-06T10:15:04;102395.46;;;18.32;31.11
70256;BME280;57669;52.624;-1.688;2022-08-06T10:17:29;102401.06;;;18.66;30.37
70256;BME280;57669;52.624;-1.688;2022-08-06T10:20:04;102405.63;;;17.34;32.03
70256;BME280;57669;52.624;-1.688;2022-08-06T10:22:21;102407.64;;;17.64;32.93
70256;BME280;57669;52.624;-1.688;2022-08-06T10:24:49;102406.71;;;17.42;32.69
70256;BME280;57669;52.624;-1.688;2022-08-06T10:27:13;102404.05;;;18.29;31.90
70256;BME280;57669;52.624;-1.688;2022-08-06T10:29:41;102396.49;;;18.74;31.13
70256;BME280;57669;52.624;-1.688;2022-08-06T10:32:04;102396.12;;;18.28;31.00
70256;BME280;57669;52.624;-1.688;2022-08-06T10:34:30;102406.15;;;18.26;31.48
70256;BME280;57669;52.624;-1.688;2022-08-06T10:36:58;102411.11;;;18.17;31.85
70256;BME280;57669;52.624;-1.688;2022-08-06T10:39:21;102415.68;;;17.40;32.69
70256;BME280;57669;52.624;-1.688;2022-08-06T10:41:46;102415.02;;;18.17;31.03
70256;BME280;57669;52.624;-1.688;2022-08-06T10:44:12;102410.58;;;17.97;32.29
70256;BME280;57669;52.624;-1.688;2022-08-06T10:46:37;102401.84;;;18.98;30.77
70256;BME280;57669;52.624;-1.688;2022-08-06T10:49:05;102407.05;;;19.24;29.23
70256;BME280;57669;52.624;-1.688;2022-08-06T10:51:28;102406.31;;;18.19;30.55
70256;BME280;57669;52.624;-1.688;2022-08-06T10:53:54;102402.85;;;18.01;31.81
70256;BME280;57669;52.624;-1.688;2022-08-06T10:56:20;102396.15;;;18.56;30.82
70256;BME280;57669;52.624;-1.688;2022-08-06T10:58:45;102384.00;;;18.73;30.48
70256;BME280;57669;52.624;-1.688;2022-08-06T11:01:18;102383.88;;;19.13;29.35
70256;BME280;57669;52.624;-1.688;2022-08-06T11:03:47;102380.13;;;19.81;28.46
70256;BME280;57669;52.624;-1.688;2022-08-06T11:06:12;102385.34;;;19.34;28.81
70256;BME280;57669;52.624;-1.688;2022-08-06T11:08:37;102380.23;;;19.18;28.79
70256;BME280;57669;52.624;-1.688;2022-08-06T11:13:27;102375.15;;;20.47;27.34
70256;BME280;57669;52.624;-1.688;2022-08-06T11:15:45;102371.76;;;19.56;28.29
70256;BME280;57669;52.624;-1.688;2022-08-06T11:18:12;102372.01;;;19.31;28.25
70256;BME280;57669;52.624;-1.688;2022-08-06T11:20:38;102369.35;;;18.90;28.98
70256;BME280;57669;52.624;-1.688;2022-08-06T11:23:03;102366.21;;;19.37;28.21
70256;BME280;57669;52.624;-1.688;2022-08-06T11:27:54;102364.55;;;19.21;28.49
70256;BME280;57669;52.624;-1.688;2022-08-06T11:30:19;102355.13;;;19.93;26.93
70256;BME280;57669;52.624;-1.688;2022-08-06T11:32:46;102360.70;;;19.73;28.17
70256;BME280;57669;52.624;-1.688;2022-08-06T11:37:42;102363.08;;;18.78;28.32
70256;BME280;57669;52.624;-1.688;2022-08-06T11:40:07;102356.88;;;18.58;29.02
70256;BME280;57669;52.624;-1.688;2022-08-06T11:45:00;102350.54;;;19.59;27.69
70256;BME280;57669;52.624;-1.688;2022-08-06T11:47:18;102352.21;;;19.32;28.89
70256;BME280;57669;52.624;-1.688;2022-08-06T11:49:45;102342.28;;;19.55;28.00
70256;BME280;57669;52.624;-1.688;2022-08-06T11:52:09;102338.05;;;20.24;26.31
70256;BME280;57669;52.624;-1.688;2022-08-06T11:54:36;102337.11;;;19.94;27.38
70256;BME280;57669;52.624;-1.688;2022-08-06T11:59:26;102335.61;;;18.96;27.92
70256;BME280;57669;52.624;-1.688;2022-08-06T12:01:52;102329.07;;;18.88;28.86
70256;BME280;57669;52.624;-1.688;2022-08-06T12:06:43;102323.75;;;20.20;27.30
70256;BME280;57669;52.624;-1.688;2022-08-06T12:09:10;102317.73;;;20.91;25.82
70256;BME280;57669;52.624;-1.688;2022-08-06T12:11:34;102322.27;;;19.86;27.78
70256;BME280;57669;52.624;-1.688;2022-08-06T12:14:00;102320.64;;;19.88;26.71
70256;BME280;57669;52.624;-1.688;2022-08-06T12:16:30;102320.89;;;21.12;25.21
70256;BME280;57669;52.624;-1.688;2022-08-06T12:18:51;102324.27;;;20.83;24.24
70256;BME280;57669;52.624;-1.688;2022-08-06T12:21:17;102314.86;;;21.15;24.22
70256;BME280;57669;52.624;-1.688;2022-08-06T12:23:50;102323.37;;;20.10;24.77
70256;BME280;57669;52.624;-1.688;2022-08-06T12:26:08;102324.62;;;21.88;23.95
70256;BME280;57669;52.624;-1.688;2022-08-06T12:28:33;102321.04;;;21.61;24.35
70256;BME280;57669;52.624;-1.688;2022-08-06T12:30:59;102317.02;;;23.31;22.00
70256;BME280;57669;52.624;-1.688;2022-08-06T12:33:25;102314.40;;;22.35;23.20
70256;BME280;57669;52.624;-1.688;2022-08-06T12:35:52;102319.19;;;22.33;23.81
70256;BME280;57669;52.624;-1.688;2022-08-06T12:38:16;102307.77;;;23.90;22.02
70256;BME280;57669;52.624;-1.688;2022-08-06T12:40:51;102305.72;;;25.49;19.65
70256;BME280;57669;52.624;-1.688;2022-08-06T12:43:10;102309.74;;;25.91;18.04
70256;BME280;57669;52.624;-1.688;2022-08-06T12:45:33;102303.46;;;26.84;17.14
70256;BME280;57669;52.624;-1.688;2022-08-06T12:47:59;102304.50;;;27.39;16.14
70256;BME280;57669;52.624;-1.688;2022-08-06T12:50:25;102310.47;;;28.22;15.93
70256;BME280;57669;52.624;-1.688;2022-08-06T12:55:17;102307.47;;;27.42;16.86
70256;BME280;57669;52.624;-1.688;2022-08-06T12:57:40;102305.93;;;26.63;17.58
70256;BME280;57669;52.624;-1.688;2022-08-06T13:00:07;102303.48;;;27.62;17.31